createdAt,value
2017-10-15T00:00:49.660Z,0.00
2017-10-15T00:01:49.609Z,0.00
2017-10-15T00:02:49.551Z,0.00
2017-10-15T00:03:49.496Z,0.00
2017-10-15T00:04:49.441Z,0.00
2017-10-15T00:05:49.387Z,0.00
2017-10-15T00:06:49.332Z,0.00
2017-10-15T00:07:49.279Z,0.00
2017-10-15T00:08:49.226Z,0.00
2017-10-15T00:09:49.168Z,0.00
2017-10-15T00:10:49.114Z,0.00
2017-10-15T00:11:49.063Z,0.00
2017-10-15T00:12:49.004Z,0.00
2017-10-15T00:13:48.948Z,0.00
2017-10-15T00:14:48.894Z,0.00
2017-10-15T00:15:48.841Z,0.00
2017-10-15T00:16:48.787Z,0.00
2017-10-15T00:17:48.731Z,0.00
2017-10-15T00:18:48.676Z,0.00
2017-10-15T00:19:48.623Z,0.00
2017-10-15T00:20:48.567Z,0.00
2017-10-15T00:21:48.513Z,0.00
2017-10-15T00:22:48.459Z,0.00
2017-10-15T00:23:48.404Z,0.00
2017-10-15T00:24:48.348Z,0.00
2017-10-15T00:25:48.294Z,0.00
2017-10-15T00:26:48.247Z,0.00
2017-10-15T00:27:48.186Z,0.00
2017-10-15T00:28:48.130Z,0.00
2017-10-15T00:29:48.076Z,0.00
2017-10-15T00:30:48.020Z,0.00
2017-10-15T00:31:47.967Z,0.00
2017-10-15T00:32:47.912Z,0.00
2017-10-15T00:33:47.860Z,0.00
2017-10-15T00:34:47.806Z,0.00
2017-10-15T00:35:47.749Z,0.00
2017-10-15T00:36:47.693Z,0.00
2017-10-15T00:37:47.641Z,0.00
2017-10-15T00:38:47.587Z,0.00
2017-10-15T00:39:47.531Z,0.00
2017-10-15T00:40:47.475Z,0.00
2017-10-15T00:41:47.420Z,0.00
2017-10-15T00:42:47.366Z,0.00
2017-10-15T00:43:47.311Z,0.00
2017-10-15T00:44:47.263Z,0.00
2017-10-15T00:45:47.202Z,0.00
2017-10-15T00:46:47.148Z,0.00
2017-10-15T00:47:47.092Z,0.00
2017-10-15T00:48:47.038Z,0.00
2017-10-15T00:49:46.983Z,0.00
2017-10-15T00:50:46.935Z,0.00
2017-10-15T00:51:46.876Z,0.00
2017-10-15T00:52:46.823Z,0.00
2017-10-15T00:53:46.766Z,0.00
2017-10-15T00:54:46.711Z,0.00
2017-10-15T00:55:46.655Z,0.00
2017-10-15T00:56:46.601Z,0.00
2017-10-15T00:57:46.549Z,0.00
2017-10-15T00:58:46.491Z,0.00
2017-10-15T00:59:46.435Z,0.00
2017-10-15T01:00:46.383Z,0.00
2017-10-15T01:01:46.326Z,0.00
2017-10-15T01:02:46.273Z,0.00
2017-10-15T01:03:46.219Z,0.00
2017-10-15T01:04:46.165Z,0.00
2017-10-15T01:05:46.108Z,0.00
2017-10-15T01:06:46.056Z,0.00
2017-10-15T01:07:46.001Z,0.00
2017-10-15T01:08:45.948Z,0.00
2017-10-15T01:09:45.890Z,0.00
2017-10-15T01:10:45.837Z,0.00
2017-10-15T01:11:45.781Z,0.00
2017-10-15T01:12:45.726Z,0.00
2017-10-15T01:13:45.671Z,0.00
2017-10-15T01:14:45.619Z,0.00
2017-10-15T01:15:45.565Z,0.00
2017-10-15T01:16:45.509Z,0.00
2017-10-15T01:17:45.455Z,0.00
2017-10-15T01:18:45.415Z,0.00
2017-10-15T01:19:45.345Z,0.00
2017-10-15T01:20:45.289Z,0.00
2017-10-15T01:21:45.234Z,0.00
2017-10-15T01:22:45.181Z,0.00
2017-10-15T01:23:45.128Z,0.00
2017-10-15T01:24:45.071Z,0.00
2017-10-15T01:25:45.018Z,0.00
2017-10-15T01:26:44.962Z,0.00
2017-10-15T01:27:44.910Z,0.00
2017-10-15T01:28:44.851Z,0.00
2017-10-15T01:29:44.797Z,0.00
2017-10-15T01:30:44.744Z,0.00
2017-10-15T01:31:44.688Z,0.00
2017-10-15T01:32:44.633Z,0.00
2017-10-15T01:33:44.579Z,0.00
2017-10-15T01:34:44.531Z,0.00
2017-10-15T01:35:44.471Z,0.00
2017-10-15T01:36:44.414Z,0.00
2017-10-15T01:37:44.360Z,0.00
2017-10-15T01:38:44.305Z,0.00
2017-10-15T01:39:44.250Z,0.00
2017-10-15T01:40:44.197Z,0.00
2017-10-15T01:41:44.143Z,0.00
2017-10-15T01:42:44.087Z,0.00
2017-10-15T01:43:44.032Z,0.00
2017-10-15T01:44:43.980Z,0.00
2017-10-15T01:45:43.923Z,0.00
2017-10-15T01:46:43.868Z,0.00
2017-10-15T01:47:43.813Z,0.00
2017-10-15T01:48:43.759Z,0.00
2017-10-15T01:49:43.705Z,0.00
2017-10-15T01:50:43.648Z,0.00
2017-10-15T01:51:43.593Z,0.00
2017-10-15T01:52:43.540Z,0.00
2017-10-15T01:53:43.485Z,0.00
2017-10-15T01:54:43.429Z,0.00
2017-10-15T01:55:43.376Z,0.00
2017-10-15T01:56:43.321Z,0.00
2017-10-15T01:57:43.266Z,0.00
2017-10-15T01:58:43.214Z,0.00
2017-10-15T01:59:43.160Z,0.00
2017-10-15T02:00:43.102Z,0.00
2017-10-15T02:01:43.047Z,0.00
2017-10-15T02:02:42.994Z,0.00
2017-10-15T02:03:42.939Z,0.00
2017-10-15T02:04:42.882Z,0.00
2017-10-15T02:05:42.828Z,0.00
2017-10-15T02:06:42.773Z,0.00
2017-10-15T02:07:42.719Z,0.00
2017-10-15T02:08:42.664Z,0.00
2017-10-15T02:09:42.607Z,0.00
2017-10-15T02:10:42.558Z,0.00
2017-10-15T02:11:42.500Z,0.00
2017-10-15T02:12:42.445Z,0.00
2017-10-15T02:13:42.393Z,0.00
2017-10-15T02:14:42.338Z,0.00
2017-10-15T02:15:42.281Z,0.00
2017-10-15T02:16:42.226Z,0.00
2017-10-15T02:17:42.172Z,0.00
2017-10-15T02:18:42.117Z,0.00
2017-10-15T02:19:42.066Z,0.00
2017-10-15T02:20:42.007Z,0.00
2017-10-15T02:21:41.952Z,0.00
2017-10-15T02:22:41.898Z,0.00
2017-10-15T02:23:41.842Z,0.00
2017-10-15T02:24:41.790Z,0.00
2017-10-15T02:25:41.734Z,0.00
2017-10-15T02:26:41.681Z,0.00
2017-10-15T02:27:41.624Z,0.00
2017-10-15T02:28:41.570Z,0.00
2017-10-15T02:29:41.516Z,0.00
2017-10-15T02:30:41.461Z,0.00
2017-10-15T02:31:41.407Z,0.00
2017-10-15T02:32:41.351Z,0.00
2017-10-15T02:33:41.298Z,0.00
2017-10-15T02:34:41.243Z,0.00
2017-10-15T02:35:41.188Z,0.00
2017-10-15T02:36:41.134Z,0.00
2017-10-15T02:37:41.082Z,0.00
2017-10-15T02:38:41.022Z,0.00
2017-10-15T02:39:40.968Z,0.00
2017-10-15T02:40:40.913Z,0.00
2017-10-15T02:41:40.860Z,0.00
2017-10-15T02:42:40.807Z,0.00
2017-10-15T02:43:40.749Z,0.00
2017-10-15T02:44:40.695Z,0.00
2017-10-15T02:45:40.641Z,0.00
2017-10-15T02:46:40.586Z,0.00
2017-10-15T02:47:40.531Z,0.00
2017-10-15T02:48:40.477Z,0.00
2017-10-15T02:49:40.427Z,0.00
2017-10-15T02:50:40.370Z,0.00
2017-10-15T02:51:40.312Z,0.00
2017-10-15T02:52:40.257Z,0.00
2017-10-15T02:53:40.203Z,0.00
2017-10-15T02:54:40.148Z,0.00
2017-10-15T02:55:40.094Z,0.00
2017-10-15T02:56:40.040Z,0.00
2017-10-15T02:57:39.984Z,0.00
2017-10-15T02:58:39.932Z,0.00
2017-10-15T02:59:39.874Z,0.00
2017-10-15T03:00:39.821Z,0.00
2017-10-15T03:01:39.766Z,0.00
2017-10-15T03:02:39.711Z,0.00
2017-10-15T03:03:39.656Z,0.00
2017-10-15T03:04:39.602Z,0.00
2017-10-15T03:05:39.547Z,0.00
2017-10-15T03:06:39.492Z,0.00
2017-10-15T03:07:39.437Z,0.00
2017-10-15T03:08:39.383Z,0.00
2017-10-15T03:09:39.328Z,0.00
2017-10-15T03:10:39.274Z,0.00
2017-10-15T03:11:39.219Z,0.00
2017-10-15T03:12:39.164Z,0.00
2017-10-15T03:13:39.112Z,0.00
2017-10-15T03:14:39.057Z,0.00
2017-10-15T03:15:39.001Z,0.00
2017-10-15T03:16:38.945Z,0.00
2017-10-15T03:17:38.892Z,0.00
2017-10-15T03:18:38.836Z,0.00
2017-10-15T03:19:38.781Z,0.00
2017-10-15T03:20:38.726Z,0.00
2017-10-15T03:21:38.662Z,0.00
2017-10-15T03:22:38.617Z,0.00
2017-10-15T03:23:38.563Z,0.00
2017-10-15T03:24:38.508Z,0.00
2017-10-15T03:25:38.452Z,0.00
2017-10-15T03:26:38.388Z,0.00
2017-10-15T03:27:38.344Z,0.00
2017-10-15T03:28:38.289Z,0.00
2017-10-15T03:29:38.234Z,0.00
2017-10-15T03:30:38.182Z,0.00
2017-10-15T03:31:38.117Z,0.00
2017-10-15T03:32:38.070Z,0.00
2017-10-15T03:33:38.017Z,0.00
2017-10-15T03:34:37.962Z,0.00
2017-10-15T03:35:37.916Z,0.00
2017-10-15T03:36:37.842Z,0.00
2017-10-15T03:37:37.798Z,0.00
2017-10-15T03:38:37.742Z,0.00
2017-10-15T03:39:37.689Z,0.00
2017-10-15T03:40:37.633Z,0.00
2017-10-15T03:41:37.567Z,0.00
2017-10-15T03:42:37.524Z,0.00
2017-10-15T03:43:37.470Z,0.00
2017-10-15T03:44:37.415Z,0.00
2017-10-15T03:45:37.360Z,0.00
2017-10-15T03:46:37.291Z,0.00
2017-10-15T03:47:37.250Z,0.00
2017-10-15T03:48:37.196Z,0.00
2017-10-15T03:49:37.141Z,0.00
2017-10-15T03:50:37.086Z,0.00
2017-10-15T03:51:37.017Z,0.00
2017-10-15T03:52:36.979Z,0.00
2017-10-15T03:53:36.925Z,0.00
2017-10-15T03:54:36.868Z,0.00
2017-10-15T03:55:36.813Z,0.00
2017-10-15T03:56:36.776Z,0.00
2017-10-15T03:57:36.705Z,0.00
2017-10-15T03:58:36.650Z,0.00
2017-10-15T03:59:36.596Z,0.00
2017-10-15T04:00:36.541Z,0.00
2017-10-15T04:01:36.477Z,0.00
2017-10-15T04:02:36.435Z,0.00
2017-10-15T04:03:36.378Z,0.00
2017-10-15T04:04:36.302Z,0.00
2017-10-15T04:05:36.248Z,0.00
2017-10-15T04:06:36.197Z,0.00
2017-10-15T04:07:36.137Z,0.00
2017-10-15T04:08:36.081Z,0.00
2017-10-15T04:09:36.027Z,0.00
2017-10-15T04:10:35.974Z,0.00
2017-10-15T04:11:35.919Z,0.00
2017-10-15T04:12:35.862Z,0.00
2017-10-15T04:13:35.808Z,0.00
2017-10-15T04:14:35.755Z,0.00
2017-10-15T04:15:35.698Z,0.00
2017-10-15T04:16:35.643Z,0.00
2017-10-15T04:17:35.589Z,0.00
2017-10-15T04:18:35.533Z,0.00
2017-10-15T04:19:35.479Z,0.00
2017-10-15T04:20:35.424Z,0.00
2017-10-15T04:21:35.370Z,0.00
2017-10-15T04:22:35.314Z,0.00
2017-10-15T04:23:35.258Z,0.00
2017-10-15T04:24:35.204Z,0.00
2017-10-15T04:25:35.147Z,0.00
2017-10-15T04:26:35.094Z,0.00
2017-10-15T04:27:35.042Z,0.00
2017-10-15T04:28:34.983Z,0.00
2017-10-15T04:29:34.928Z,0.00
2017-10-15T04:30:34.876Z,0.00
2017-10-15T04:31:34.820Z,0.00
2017-10-15T04:32:34.764Z,0.00
2017-10-15T04:33:34.707Z,0.00
2017-10-15T04:34:34.655Z,0.00
2017-10-15T04:35:34.600Z,0.00
2017-10-15T04:36:34.544Z,0.00
2017-10-15T04:37:34.489Z,0.00
2017-10-15T04:38:34.433Z,0.00
2017-10-15T04:39:34.380Z,0.00
2017-10-15T04:40:34.319Z,0.00
2017-10-15T04:41:34.269Z,0.00
2017-10-15T04:42:34.214Z,0.00
2017-10-15T04:43:34.161Z,0.00
2017-10-15T04:44:34.105Z,0.00
2017-10-15T04:45:34.050Z,0.00
2017-10-15T04:46:34.002Z,0.00
2017-10-15T04:47:33.940Z,0.00
2017-10-15T04:48:33.882Z,0.00
2017-10-15T04:49:33.831Z,0.00
2017-10-15T04:50:33.775Z,0.00
2017-10-15T04:51:33.726Z,0.00
2017-10-15T04:52:33.669Z,0.00
2017-10-15T04:53:33.609Z,0.00
2017-10-15T04:54:33.551Z,0.00
2017-10-15T04:55:33.500Z,0.00
2017-10-15T04:56:33.445Z,0.00
2017-10-15T04:57:33.390Z,0.00
2017-10-15T04:58:33.335Z,0.00
2017-10-15T04:59:33.281Z,0.00
2017-10-15T05:00:33.234Z,4.00
2017-10-15T05:01:33.169Z,4.00
2017-10-15T05:02:33.113Z,4.00
2017-10-15T05:03:33.060Z,0.00
2017-10-15T05:04:33.004Z,4.00
2017-10-15T05:05:32.950Z,4.00
2017-10-15T05:06:32.895Z,8.00
2017-10-15T05:07:32.834Z,8.00
2017-10-15T05:08:32.776Z,8.00
2017-10-15T05:09:32.721Z,8.00
2017-10-15T05:10:32.669Z,12.00
2017-10-15T05:11:32.612Z,16.00
2017-10-15T05:12:32.558Z,16.00
2017-10-15T05:13:32.502Z,20.00
2017-10-15T05:14:32.447Z,24.00
2017-10-15T05:15:32.393Z,28.00
2017-10-15T05:16:32.336Z,28.00
2017-10-15T05:17:32.282Z,36.00
2017-10-15T05:18:32.226Z,40.00
2017-10-15T05:19:32.172Z,48.00
2017-10-15T05:20:32.121Z,56.00
2017-10-15T05:21:32.061Z,68.00
2017-10-15T05:22:32.010Z,72.00
2017-10-15T05:23:31.951Z,84.00
2017-10-15T05:24:31.897Z,96.00
2017-10-15T05:25:31.847Z,108.00
2017-10-15T05:26:31.793Z,120.00
2017-10-15T05:27:31.734Z,136.00
2017-10-15T05:28:31.677Z,152.00
2017-10-15T05:29:31.622Z,168.00
2017-10-15T05:30:31.569Z,184.00
2017-10-15T05:31:31.511Z,204.00
2017-10-15T05:32:31.457Z,220.00
2017-10-15T05:33:31.402Z,244.00
2017-10-15T05:34:31.363Z,264.00
2017-10-15T05:35:31.293Z,292.00
2017-10-15T05:36:31.242Z,320.00
2017-10-15T05:37:31.183Z,356.00
2017-10-15T05:38:31.127Z,396.00
2017-10-15T05:39:31.078Z,436.00
2017-10-15T05:40:31.020Z,484.00
2017-10-15T05:41:30.964Z,520.00
2017-10-15T05:42:30.907Z,564.00
2017-10-15T05:43:30.851Z,612.00
2017-10-15T05:44:30.797Z,660.00
2017-10-15T05:45:30.742Z,712.00
2017-10-15T05:46:30.686Z,760.00
2017-10-15T05:47:30.632Z,812.00
2017-10-15T05:48:30.577Z,864.00
2017-10-15T05:49:30.532Z,932.00
2017-10-15T05:50:30.469Z,988.00
2017-10-15T05:51:30.414Z,1040.00
2017-10-15T05:52:30.356Z,1084.00
2017-10-15T05:53:30.301Z,1136.00
2017-10-15T05:54:30.249Z,1188.00
2017-10-15T05:55:30.198Z,1240.00
2017-10-15T05:56:30.137Z,1304.00
2017-10-15T05:57:30.081Z,1388.00
2017-10-15T05:58:30.028Z,1456.00
2017-10-15T05:59:29.973Z,1472.00
2017-10-15T06:00:29.917Z,1476.00
2017-10-15T06:01:29.863Z,1504.00
2017-10-15T06:02:29.807Z,1544.00
2017-10-15T06:03:29.752Z,1596.00
2017-10-15T06:04:29.698Z,1644.00
2017-10-15T06:05:29.643Z,1696.00
2017-10-15T06:06:29.588Z,1764.00
2017-10-15T06:07:29.534Z,1844.00
2017-10-15T06:08:29.480Z,1936.00
2017-10-15T06:09:29.426Z,2044.00
2017-10-15T06:10:29.374Z,2168.00
2017-10-15T06:11:29.316Z,2324.00
2017-10-15T06:12:29.261Z,2452.00
2017-10-15T06:13:29.205Z,2540.00
2017-10-15T06:14:29.151Z,2720.00
2017-10-15T06:15:29.098Z,2896.00
2017-10-15T06:16:29.042Z,2984.00
2017-10-15T06:17:28.987Z,3148.00
2017-10-15T06:18:28.931Z,3336.00
2017-10-15T06:19:28.878Z,3332.00
2017-10-15T06:20:28.822Z,3300.00
2017-10-15T06:21:28.769Z,3372.00
2017-10-15T06:22:28.713Z,3492.00
2017-10-15T06:23:28.658Z,3656.00
2017-10-15T06:24:28.603Z,3888.00
2017-10-15T06:25:28.549Z,4128.00
2017-10-15T06:26:28.495Z,4276.00
2017-10-15T06:27:28.438Z,4364.00
2017-10-15T06:28:28.384Z,4428.00
2017-10-15T06:29:28.330Z,4448.00
2017-10-15T06:30:28.275Z,4460.00
2017-10-15T06:31:28.220Z,4508.00
2017-10-15T06:32:28.167Z,4584.00
2017-10-15T06:33:28.111Z,4672.00
2017-10-15T06:34:28.056Z,4780.00
2017-10-15T06:35:28.008Z,4852.00
2017-10-15T06:36:27.947Z,4936.00
2017-10-15T06:37:27.892Z,4992.00
2017-10-15T06:38:27.837Z,5000.00
2017-10-15T06:39:27.783Z,5084.00
2017-10-15T06:40:27.732Z,5168.00
2017-10-15T06:41:27.674Z,5212.00
2017-10-15T06:42:27.619Z,5228.00
2017-10-15T06:43:27.564Z,5180.00
2017-10-15T06:44:27.510Z,5176.00
2017-10-15T06:45:27.456Z,5260.00
2017-10-15T06:46:27.401Z,5348.00
2017-10-15T06:47:27.347Z,5380.00
2017-10-15T06:48:27.291Z,5400.00
2017-10-15T06:49:27.238Z,5412.00
2017-10-15T06:50:27.183Z,5456.00
2017-10-15T06:51:27.129Z,5408.00
2017-10-15T06:52:27.073Z,5336.00
2017-10-15T06:53:27.018Z,5472.00
2017-10-15T06:54:26.964Z,5748.00
2017-10-15T06:55:26.911Z,5856.00
2017-10-15T06:56:26.855Z,5928.00
2017-10-15T06:57:26.801Z,6128.00
2017-10-15T06:58:26.748Z,6444.00
2017-10-15T06:59:26.693Z,6704.00
2017-10-15T07:00:26.638Z,6884.00
2017-10-15T07:01:26.585Z,6928.00
2017-10-15T07:02:26.531Z,6868.00
2017-10-15T07:03:26.477Z,6776.00
2017-10-15T07:04:26.422Z,6908.00
2017-10-15T07:05:26.368Z,6968.00
2017-10-15T07:06:26.314Z,7164.00
2017-10-15T07:07:26.260Z,7508.00
2017-10-15T07:08:26.211Z,7612.00
2017-10-15T07:09:26.152Z,7816.00
2017-10-15T07:10:26.105Z,7784.00
2017-10-15T07:11:26.048Z,7692.00
2017-10-15T07:12:25.994Z,7840.00
2017-10-15T07:13:25.940Z,7960.00
2017-10-15T07:14:25.883Z,7928.00
2017-10-15T07:15:25.833Z,8040.00
2017-10-15T07:16:25.774Z,8084.00
2017-10-15T07:17:25.720Z,8256.00
2017-10-15T07:18:25.668Z,8252.00
2017-10-15T07:19:25.616Z,8404.00
2017-10-15T07:20:25.570Z,8500.00
2017-10-15T07:21:25.515Z,8684.00
2017-10-15T07:22:25.461Z,8948.00
2017-10-15T07:23:25.407Z,9656.00
2017-10-15T07:24:25.362Z,10168.00
2017-10-15T07:25:25.302Z,10676.00
2017-10-15T07:26:25.251Z,11112.00
2017-10-15T07:27:25.200Z,11676.00
2017-10-15T07:28:25.144Z,11972.00
2017-10-15T07:29:25.092Z,13656.00
2017-10-15T07:30:25.039Z,15872.00
2017-10-15T07:31:25.004Z,15296.00
2017-10-15T07:32:24.950Z,13096.00
2017-10-15T07:33:24.895Z,13164.00
2017-10-15T07:34:24.841Z,14032.00
2017-10-15T07:35:24.778Z,14656.00
2017-10-15T07:36:24.732Z,13524.00
2017-10-15T07:37:24.677Z,12928.00
2017-10-15T07:38:24.624Z,13072.00
2017-10-15T07:39:24.581Z,13112.00
2017-10-15T07:40:24.519Z,12572.00
2017-10-15T07:41:24.465Z,12252.00
2017-10-15T07:42:24.412Z,12684.00
2017-10-15T07:43:24.359Z,12580.00
2017-10-15T07:44:24.309Z,13920.00
2017-10-15T07:45:24.261Z,15680.00
2017-10-15T07:46:24.203Z,14912.00
2017-10-15T07:47:24.158Z,14044.00
2017-10-15T07:48:24.110Z,13388.00
2017-10-15T07:49:24.058Z,12680.00
2017-10-15T07:50:24.006Z,12076.00
2017-10-15T07:51:23.977Z,10860.00
2017-10-15T07:52:23.921Z,10928.00
2017-10-15T07:53:23.867Z,10832.00
2017-10-15T07:54:23.816Z,11364.00
2017-10-15T07:55:23.788Z,12028.00
2017-10-15T07:56:23.705Z,12648.00
2017-10-15T07:57:23.653Z,13952.00
2017-10-15T07:58:23.600Z,16064.00
2017-10-15T07:59:23.551Z,17280.00
2017-10-15T08:00:23.497Z,18912.00
2017-10-15T08:01:23.446Z,19104.00
2017-10-15T08:02:23.396Z,16896.00
2017-10-15T08:03:23.352Z,18592.00
2017-10-15T08:04:23.299Z,21824.00
2017-10-15T08:05:23.251Z,20800.00
2017-10-15T08:06:23.222Z,20128.00
2017-10-15T08:07:23.166Z,19904.00
2017-10-15T08:08:23.111Z,22016.00
2017-10-15T08:09:23.058Z,25408.00
2017-10-15T08:10:23.006Z,25568.00
2017-10-15T08:11:22.958Z,26496.00
2017-10-15T08:12:22.902Z,26912.00
2017-10-15T08:13:22.850Z,28096.00
2017-10-15T08:14:22.802Z,28288.00
2017-10-15T08:15:22.761Z,28832.00
2017-10-15T08:16:22.712Z,29056.00
2017-10-15T08:17:22.662Z,29152.00
2017-10-15T08:18:22.633Z,29952.00
2017-10-15T08:19:22.575Z,30272.00
2017-10-15T08:20:22.521Z,31072.00
2017-10-15T08:21:22.473Z,31008.00
2017-10-15T08:22:22.423Z,31040.00
2017-10-15T08:23:22.373Z,31584.00
2017-10-15T08:24:22.332Z,31552.00
2017-10-15T08:25:22.293Z,31200.00
2017-10-15T08:26:22.256Z,31584.00
2017-10-15T08:27:22.203Z,31264.00
2017-10-15T08:28:22.150Z,31616.00
2017-10-15T08:29:22.103Z,32128.00
2017-10-15T08:30:22.055Z,31904.00
2017-10-15T08:31:22.016Z,31616.00
2017-10-15T08:32:21.973Z,31968.00
2017-10-15T08:33:21.939Z,32064.00
2017-10-15T08:34:21.886Z,32192.00
2017-10-15T08:35:21.839Z,32448.00
2017-10-15T08:36:21.790Z,33376.00
2017-10-15T08:37:21.754Z,34112.00
2017-10-15T08:38:21.739Z,33888.00
2017-10-15T08:39:21.676Z,34016.00
2017-10-15T08:40:21.633Z,35232.00
2017-10-15T08:41:21.578Z,36096.00
2017-10-15T08:42:21.539Z,34752.00
2017-10-15T08:43:21.498Z,34336.00
2017-10-15T08:44:21.466Z,34560.00
2017-10-15T08:45:21.424Z,35488.00
2017-10-15T08:46:21.371Z,36256.00
2017-10-15T08:47:21.332Z,36512.00
2017-10-15T08:48:21.291Z,36864.00
2017-10-15T08:49:21.257Z,33088.00
2017-10-15T08:50:21.207Z,31584.00
2017-10-15T08:51:21.162Z,35648.00
2017-10-15T08:52:21.126Z,36544.00
2017-10-15T08:53:21.106Z,36224.00
2017-10-15T08:54:21.048Z,36064.00
2017-10-15T08:55:21.002Z,35712.00
2017-10-15T08:56:20.957Z,35360.00
2017-10-15T08:57:20.933Z,36064.00
2017-10-15T08:58:20.899Z,35712.00
2017-10-15T08:59:20.842Z,34432.00
2017-10-15T09:00:20.796Z,34208.00
2017-10-15T09:01:20.761Z,34528.00
2017-10-15T09:02:20.719Z,35136.00
2017-10-15T09:03:20.687Z,35936.00
2017-10-15T09:04:20.639Z,36032.00
2017-10-15T09:05:20.593Z,36000.00
2017-10-15T09:06:20.562Z,35936.00
2017-10-15T09:07:20.532Z,36576.00
2017-10-15T09:08:20.484Z,36000.00
2017-10-15T09:09:20.434Z,34816.00
2017-10-15T09:10:20.402Z,34176.00
2017-10-15T09:11:20.376Z,33568.00
2017-10-15T09:12:20.327Z,33952.00
2017-10-15T09:13:20.277Z,37376.00
2017-10-15T09:14:20.238Z,37824.00
2017-10-15T09:15:20.203Z,36192.00
2017-10-15T09:16:20.169Z,34944.00
2017-10-15T09:17:20.121Z,34592.00
2017-10-15T09:18:20.081Z,33920.00
2017-10-15T09:19:20.042Z,34912.00
2017-10-15T09:20:20.015Z,33312.00
2017-10-15T09:21:19.963Z,34208.00
2017-10-15T09:22:19.918Z,36064.00
2017-10-15T09:23:19.884Z,35392.00
2017-10-15T09:24:19.861Z,36032.00
2017-10-15T09:25:19.807Z,35520.00
2017-10-15T09:26:19.763Z,35104.00
2017-10-15T09:27:19.723Z,35168.00
2017-10-15T09:28:19.685Z,34112.00
2017-10-15T09:29:19.652Z,35360.00
2017-10-15T09:30:19.605Z,35904.00
2017-10-15T09:31:19.559Z,35776.00
2017-10-15T09:32:19.526Z,30144.00
2017-10-15T09:33:19.498Z,34752.00
2017-10-15T09:34:19.447Z,34848.00
2017-10-15T09:35:19.405Z,37280.00
2017-10-15T09:36:19.369Z,37184.00
2017-10-15T09:37:19.345Z,38048.00
2017-10-15T09:38:19.291Z,36096.00
2017-10-15T09:39:19.246Z,34304.00
2017-10-15T09:40:19.205Z,39520.00
2017-10-15T09:41:19.169Z,37504.00
2017-10-15T09:42:19.148Z,34816.00
2017-10-15T09:43:19.088Z,36448.00
2017-10-15T09:44:19.045Z,34688.00
2017-10-15T09:45:19.011Z,31840.00
2017-10-15T09:46:18.981Z,32832.00
2017-10-15T09:47:18.932Z,33984.00
2017-10-15T09:48:18.887Z,36448.00
2017-10-15T09:49:18.850Z,38240.00
2017-10-15T09:50:18.834Z,35936.00
2017-10-15T09:51:18.775Z,35296.00
2017-10-15T09:52:18.729Z,36704.00
2017-10-15T09:53:18.693Z,39552.00
2017-10-15T09:54:18.653Z,36864.00
2017-10-15T09:55:18.618Z,35712.00
2017-10-15T09:56:18.571Z,29440.00
2017-10-15T09:57:18.526Z,20160.00
2017-10-15T09:58:18.498Z,13524.00
2017-10-15T09:59:18.464Z,13292.00
2017-10-15T10:00:18.419Z,13272.00
2017-10-15T10:01:18.372Z,13092.00
2017-10-15T10:02:18.330Z,13200.00
2017-10-15T10:03:18.291Z,13000.00
2017-10-15T10:04:18.257Z,12812.00
2017-10-15T10:05:18.207Z,12520.00
2017-10-15T10:06:18.163Z,12140.00
2017-10-15T10:07:18.128Z,11684.00
2017-10-15T10:08:18.102Z,12260.00
2017-10-15T10:09:18.054Z,12200.00
2017-10-15T10:10:18.003Z,12060.00
2017-10-15T10:11:17.955Z,12004.00
2017-10-15T10:12:17.919Z,12240.00
2017-10-15T10:13:17.894Z,22592.00
2017-10-15T10:14:17.840Z,36448.00
2017-10-15T10:15:17.792Z,31040.00
2017-10-15T10:16:17.752Z,20000.00
2017-10-15T10:17:17.704Z,16768.00
2017-10-15T10:18:17.671Z,14188.00
2017-10-15T10:19:17.636Z,12804.00
2017-10-15T10:20:17.578Z,12632.00
2017-10-15T10:21:17.531Z,13276.00
2017-10-15T10:22:17.484Z,12372.00
2017-10-15T10:23:17.446Z,10528.00
2017-10-15T10:24:17.402Z,10368.00
2017-10-15T10:25:17.368Z,10300.00
2017-10-15T10:26:17.315Z,10444.00
2017-10-15T10:27:17.267Z,10552.00
2017-10-15T10:28:17.221Z,10112.00
2017-10-15T10:29:17.179Z,9660.00
2017-10-15T10:30:17.145Z,9476.00
2017-10-15T10:31:17.105Z,9516.00
2017-10-15T10:32:17.051Z,9508.00
2017-10-15T10:33:17.001Z,7808.00
2017-10-15T10:34:16.953Z,9300.00
2017-10-15T10:35:16.908Z,9336.00
2017-10-15T10:36:16.866Z,9484.00
2017-10-15T10:37:16.819Z,9212.00
2017-10-15T10:38:16.787Z,8896.00
2017-10-15T10:39:16.733Z,8772.00
2017-10-15T10:40:16.682Z,8812.00
2017-10-15T10:41:16.634Z,8824.00
2017-10-15T10:42:16.588Z,8700.00
2017-10-15T10:43:16.547Z,8428.00
2017-10-15T10:44:16.495Z,8244.00
2017-10-15T10:45:16.455Z,8168.00
2017-10-15T10:46:16.420Z,8192.00
2017-10-15T10:47:16.358Z,7032.00
2017-10-15T10:48:16.311Z,8200.00
2017-10-15T10:49:16.261Z,8280.00
2017-10-15T10:50:16.212Z,7188.00
2017-10-15T10:51:16.170Z,7668.00
2017-10-15T10:52:16.123Z,7992.00
2017-10-15T10:53:16.075Z,4844.00
2017-10-15T10:54:16.044Z,8080.00
2017-10-15T10:55:15.989Z,8300.00
2017-10-15T10:56:15.936Z,8888.00
2017-10-15T10:57:15.879Z,6768.00
2017-10-15T10:58:15.834Z,8000.00
2017-10-15T10:59:15.789Z,8120.00
2017-10-15T11:00:15.737Z,7972.00
2017-10-15T11:01:15.696Z,7792.00
2017-10-15T11:02:15.644Z,7584.00
2017-10-15T11:03:15.596Z,7352.00
2017-10-15T11:04:15.564Z,7196.00
2017-10-15T11:05:15.510Z,7304.00
2017-10-15T11:06:15.457Z,6220.00
2017-10-15T11:07:15.410Z,7312.00
2017-10-15T11:08:15.357Z,7000.00
2017-10-15T11:09:15.306Z,6952.00
2017-10-15T11:10:15.257Z,6904.00
2017-10-15T11:11:15.213Z,6748.00
2017-10-15T11:12:15.166Z,6732.00
2017-10-15T11:13:15.117Z,6744.00
2017-10-15T11:14:15.083Z,6800.00
2017-10-15T11:15:15.029Z,6684.00
2017-10-15T11:16:14.975Z,6600.00
2017-10-15T11:17:14.923Z,6480.00
2017-10-15T11:18:14.873Z,6308.00
2017-10-15T11:19:14.823Z,6220.00
2017-10-15T11:20:14.771Z,6132.00
2017-10-15T11:21:14.729Z,6096.00
2017-10-15T11:22:14.682Z,6024.00
2017-10-15T11:23:14.634Z,5888.00
2017-10-15T11:24:14.582Z,5772.00
2017-10-15T11:25:14.547Z,5676.00
2017-10-15T11:26:14.494Z,5600.00
2017-10-15T11:27:14.436Z,5576.00
2017-10-15T11:28:14.387Z,5580.00
2017-10-15T11:29:14.337Z,5620.00
2017-10-15T11:30:14.286Z,5636.00
2017-10-15T11:31:14.235Z,5768.00
2017-10-15T11:32:14.190Z,5908.00
2017-10-15T11:33:14.142Z,4896.00
2017-10-15T11:34:14.093Z,6160.00
2017-10-15T11:35:14.043Z,6248.00
2017-10-15T11:36:13.994Z,4496.00
2017-10-15T11:37:13.945Z,4888.00
2017-10-15T11:38:13.905Z,4616.00
2017-10-15T11:39:13.851Z,4476.00
2017-10-15T11:40:13.799Z,5592.00
2017-10-15T11:41:13.748Z,3904.00
2017-10-15T11:42:13.698Z,5444.00
2017-10-15T11:43:13.651Z,5400.00
2017-10-15T11:44:13.593Z,5392.00
2017-10-15T11:45:13.553Z,5372.00
2017-10-15T11:46:13.514Z,5332.00
2017-10-15T11:47:13.502Z,5272.00
2017-10-15T11:48:13.400Z,5256.00
2017-10-15T11:49:13.370Z,5356.00
2017-10-15T11:50:13.316Z,5356.00
2017-10-15T11:51:13.261Z,5352.00
2017-10-15T11:52:13.208Z,5376.00
2017-10-15T11:53:13.155Z,5276.00
2017-10-15T11:54:13.106Z,5236.00
2017-10-15T11:55:13.056Z,5240.00
2017-10-15T11:56:13.003Z,5300.00
2017-10-15T11:57:12.954Z,5348.00
2017-10-15T11:58:12.911Z,5548.00
2017-10-15T11:59:12.861Z,5692.00
2017-10-15T12:00:12.812Z,5616.00
2017-10-15T12:01:12.761Z,5504.00
2017-10-15T12:02:12.731Z,5376.00
2017-10-15T12:03:12.673Z,5296.00
2017-10-15T12:04:12.617Z,5232.00
2017-10-15T12:05:12.564Z,5148.00
2017-10-15T12:06:12.513Z,5020.00
2017-10-15T12:07:12.468Z,4824.00
2017-10-15T12:08:12.410Z,4532.00
2017-10-15T12:09:12.359Z,4496.00
2017-10-15T12:10:12.307Z,4412.00
2017-10-15T12:11:12.267Z,4408.00
2017-10-15T12:12:12.215Z,4216.00
2017-10-15T12:13:12.161Z,4200.00
2017-10-15T12:14:12.115Z,4260.00
2017-10-15T12:15:12.084Z,4300.00
2017-10-15T12:16:12.029Z,4288.00
2017-10-15T12:17:11.977Z,4340.00
2017-10-15T12:18:11.921Z,4552.00
2017-10-15T12:19:11.867Z,4632.00
2017-10-15T12:20:11.816Z,4396.00
2017-10-15T12:21:11.765Z,4336.00
2017-10-15T12:22:11.713Z,3852.00
2017-10-15T12:23:11.662Z,4268.00
2017-10-15T12:24:11.610Z,4528.00
2017-10-15T12:25:11.566Z,4848.00
2017-10-15T12:26:11.519Z,5708.00
2017-10-15T12:27:11.470Z,5168.00
2017-10-15T12:28:11.419Z,4736.00
2017-10-15T12:29:11.386Z,4932.00
2017-10-15T12:30:11.330Z,4528.00